sensor_id;sensor_type;location;lat;lon;timestamp;P1;durP1;ratioP1;P2;durP2;ratioP2
12312;SDS011;6220;53.580;9.758;2022-07-11T00:01:49;4.67;;;1.60;;
12312;SDS011;6220;53.580;9.758;2022-07-11T00:04:14;5.17;;;2.03;;
12312;SDS011;6220;53.580;9.758;2022-07-11T00:06:40;4.47;;;1.67;;
12312;SDS011;6220;53.580;9.758;2022-07-11T00:09:06;2.03;;;1.50;;
12312;SDS011;6220;53.580;9.758;2022-07-11T00:11:31;3.13;;;1.60;;
12312;SDS011;6220;53.580;9.758;2022-07-11T00:13:56;3.37;;;1.60;;
12312;SDS011;6220;53.580;9.758;2022-07-11T00:16:22;2.30;;;1.33;;
12312;SDS011;6220;53.580;9.758;2022-07-11T00:18:47;2.87;;;1.47;;
12312;SDS011;6220;53.580;9.758;2022-07-11T00:21:12;2.70;;;1.57;;
12312;SDS011;6220;53.580;9.758;2022-07-11T00:23:38;3.63;;;1.70;;
12312;SDS011;6220;53.580;9.758;2022-07-11T00:26:03;3.30;;;1.67;;
12312;SDS011;6220;53.580;9.758;2022-07-11T00:28:29;3.03;;;1.40;;
12312;SDS011;6220;53.580;9.758;2022-07-11T00:30:55;3.93;;;1.50;;
12312;SDS011;6220;53.580;9.758;2022-07-11T00:33:20;2.60;;;1.40;;
12312;SDS011;6220;53.580;9.758;2022-07-11T00:35:46;4.77;;;1.70;;
12312;SDS011;6220;53.580;9.758;2022-07-11T00:38:12;4.07;;;1.53;;
12312;SDS011;6220;53.580;9.758;2022-07-11T00:40:37;6.13;;;1.50;;
12312;SDS011;6220;53.580;9.758;2022-07-11T00:43:03;4.10;;;1.60;;
12312;SDS011;6220;53.580;9.758;2022-07-11T00:45:29;3.70;;;1.40;;
12312;SDS011;6220;53.580;9.758;2022-07-11T00:47:54;3.37;;;1.37;;
12312;SDS011;6220;53.580;9.758;2022-07-11T00:50:21;3.70;;;1.53;;
12312;SDS011;6220;53.580;9.758;2022-07-11T00:52:46;2.87;;;1.40;;
12312;SDS011;6220;53.580;9.758;2022-07-11T00:55:12;3.50;;;1.50;;
12312;SDS011;6220;53.580;9.758;2022-07-11T00:57:37;1.50;;;1.30;;
12312;SDS011;6220;53.580;9.758;2022-07-11T01:00:04;3.57;;;1.53;;
12312;SDS011;6220;53.580;9.758;2022-07-11T01:02:30;4.47;;;1.60;;
12312;SDS011;6220;53.580;9.758;2022-07-11T01:04:56;4.00;;;1.70;;
12312;SDS011;6220;53.580;9.758;2022-07-11T01:07:21;2.87;;;1.30;;
12312;SDS011;6220;53.580;9.758;2022-07-11T01:09:47;4.10;;;1.50;;
12312;SDS011;6220;53.580;9.758;2022-07-11T01:12:12;1.70;;;1.50;;
12312;SDS011;6220;53.580;9.758;2022-07-11T01:14:37;1.87;;;1.37;;
12312;SDS011;6220;53.580;9.758;2022-07-11T01:17:03;3.50;;;1.40;;
12312;SDS011;6220;53.580;9.758;2022-07-11T01:19:29;2.87;;;1.43;;
12312;SDS011;6220;53.580;9.758;2022-07-11T01:21:55;3.93;;;1.63;;
12312;SDS011;6220;53.580;9.758;2022-07-11T01:24:21;2.17;;;1.27;;
12312;SDS011;6220;53.580;9.758;2022-07-11T01:26:47;2.70;;;1.30;;
12312;SDS011;6220;53.580;9.758;2022-07-11T01:29:14;3.60;;;1.43;;
12312;SDS011;6220;53.580;9.758;2022-07-11T01:31:42;2.73;;;1.30;;
12312;SDS011;6220;53.580;9.758;2022-07-11T01:34:09;3.40;;;1.47;;
12312;SDS011;6220;53.580;9.758;2022-07-11T01:36:34;4.23;;;1.60;;
12312;SDS011;6220;53.580;9.758;2022-07-11T01:39:00;2.60;;;1.50;;
12312;SDS011;6220;53.580;9.758;2022-07-11T01:41:25;4.07;;;1.70;;
12312;SDS011;6220;53.580;9.758;2022-07-11T01:43:51;3.43;;;1.77;;
12312;SDS011;6220;53.580;9.758;2022-07-11T01:46:17;2.93;;;1.53;;
12312;SDS011;6220;53.580;9.758;2022-07-11T01:48:43;2.87;;;1.60;;
12312;SDS011;6220;53.580;9.758;2022-07-11T01:51:09;4.40;;;1.60;;
12312;SDS011;6220;53.580;9.758;2022-07-11T01:53:35;3.00;;;1.50;;
12312;SDS011;6220;53.580;9.758;2022-07-11T01:56:00;3.50;;;1.57;;
12312;SDS011;6220;53.580;9.758;2022-07-11T01:58:25;3.33;;;1.47;;
12312;SDS011;6220;53.580;9.758;2022-07-11T02:00:51;3.53;;;1.50;;
12312;SDS011;6220;53.580;9.758;2022-07-11T02:03:16;2.83;;;1.30;;
12312;SDS011;6220;53.580;9.758;2022-07-11T02:05:42;3.50;;;1.80;;
12312;SDS011;6220;53.580;9.758;2022-07-11T02:08:07;2.57;;;1.40;;
12312;SDS011;6220;53.580;9.758;2022-07-11T02:10:36;2.97;;;1.40;;
12312;SDS011;6220;53.580;9.758;2022-07-11T02:13:02;1.37;;;1.20;;
12312;SDS011;6220;53.580;9.758;2022-07-11T02:15:28;1.83;;;1.30;;
12312;SDS011;6220;53.580;9.758;2022-07-11T02:17:54;2.40;;;1.40;;
12312;SDS011;6220;53.580;9.758;2022-07-11T02:20:20;3.47;;;1.40;;
12312;SDS011;6220;53.580;9.758;2022-07-11T02:22:46;3.00;;;1.47;;
12312;SDS011;6220;53.580;9.758;2022-07-11T02:25:13;2.73;;;1.67;;
12312;SDS011;6220;53.580;9.758;2022-07-11T02:27:38;4.27;;;1.50;;
12312;SDS011;6220;53.580;9.758;2022-07-11T02:30:04;3.50;;;1.40;;
12312;SDS011;6220;53.580;9.758;2022-07-11T02:32:30;4.00;;;1.80;;
12312;SDS011;6220;53.580;9.758;2022-07-11T02:34:55;3.87;;;1.87;;
12312;SDS011;6220;53.580;9.758;2022-07-11T02:37:20;3.23;;;1.60;;
12312;SDS011;6220;53.580;9.758;2022-07-11T02:39:46;3.47;;;1.60;;
12312;SDS011;6220;53.580;9.758;2022-07-11T02:42:12;3.97;;;1.80;;
12312;SDS011;6220;53.580;9.758;2022-07-11T02:44:38;2.33;;;1.60;;
12312;SDS011;6220;53.580;9.758;2022-07-11T02:47:03;1.83;;;1.27;;
12312;SDS011;6220;53.580;9.758;2022-07-11T02:49:28;1.80;;;1.43;;
12312;SDS011;6220;53.580;9.758;2022-07-11T02:51:55;2.13;;;1.47;;
12312;SDS011;6220;53.580;9.758;2022-07-11T02:54:21;2.43;;;1.50;;
12312;SDS011;6220;53.580;9.758;2022-07-11T02:56:46;2.80;;;1.50;;
12312;SDS011;6220;53.580;9.758;2022-07-11T02:59:12;2.60;;;1.60;;
12312;SDS011;6220;53.580;9.758;2022-07-11T03:01:37;2.83;;;1.67;;
12312;SDS011;6220;53.580;9.758;2022-07-11T03:04:03;2.07;;;1.37;;
12312;SDS011;6220;53.580;9.758;2022-07-11T03:06:28;2.73;;;1.50;;
12312;SDS011;6220;53.580;9.758;2022-07-11T03:08:53;2.40;;;1.50;;
12312;SDS011;6220;53.580;9.758;2022-07-11T03:11:19;1.40;;;1.23;;
12312;SDS011;6220;53.580;9.758;2022-07-11T03:13:44;3.00;;;1.50;;
12312;SDS011;6220;53.580;9.758;2022-07-11T03:16:10;3.53;;;1.93;;
12312;SDS011;6220;53.580;9.758;2022-07-11T03:18:35;1.50;;;1.40;;
12312;SDS011;6220;53.580;9.758;2022-07-11T03:21:01;3.90;;;2.00;;
12312;SDS011;6220;53.580;9.758;2022-07-11T03:23:26;4.83;;;1.60;;
12312;SDS011;6220;53.580;9.758;2022-07-11T03:25:51;1.60;;;1.40;;
12312;SDS011;6220;53.580;9.758;2022-07-11T03:28:17;4.57;;;1.80;;
12312;SDS011;6220;53.580;9.758;2022-07-11T03:30:42;3.13;;;1.60;;
12312;SDS011;6220;53.580;9.758;2022-07-11T03:33:07;2.33;;;1.60;;
12312;SDS011;6220;53.580;9.758;2022-07-11T03:35:33;2.67;;;1.63;;
12312;SDS011;6220;53.580;9.758;2022-07-11T03:38:10;2.17;;;1.53;;
12312;SDS011;6220;53.580;9.758;2022-07-11T03:40:36;3.20;;;1.50;;
12312;SDS011;6220;53.580;9.758;2022-07-11T03:43:02;3.27;;;1.87;;
12312;SDS011;6220;53.580;9.758;2022-07-11T03:45:27;2.47;;;1.60;;
12312;SDS011;6220;53.580;9.758;2022-07-11T03:47:53;5.53;;;2.07;;
12312;SDS011;6220;53.580;9.758;2022-07-11T03:50:18;2.53;;;1.60;;
12312;SDS011;6220;53.580;9.758;2022-07-11T03:52:43;2.37;;;1.70;;
12312;SDS011;6220;53.580;9.758;2022-07-11T03:55:10;3.83;;;1.57;;
12312;SDS011;6220;53.580;9.758;2022-07-11T03:57:35;3.70;;;1.63;;
12312;SDS011;6220;53.580;9.758;2022-07-11T04:00:02;3.07;;;1.60;;
12312;SDS011;6220;53.580;9.758;2022-07-11T04:02:30;1.93;;;1.40;;
12312;SDS011;6220;53.580;9.758;2022-07-11T04:04:55;3.10;;;1.47;;
12312;SDS011;6220;53.580;9.758;2022-07-11T04:07:21;2.50;;;1.57;;
12312;SDS011;6220;53.580;9.758;2022-07-11T04:09:46;2.57;;;1.60;;
12312;SDS011;6220;53.580;9.758;2022-07-11T04:12:11;3.23;;;1.60;;
12312;SDS011;6220;53.580;9.758;2022-07-11T04:14:37;5.17;;;1.60;;
12312;SDS011;6220;53.580;9.758;2022-07-11T04:17:02;4.17;;;1.83;;
12312;SDS011;6220;53.580;9.758;2022-07-11T04:19:28;2.23;;;1.40;;
12312;SDS011;6220;53.580;9.758;2022-07-11T04:21:53;3.40;;;1.30;;
12312;SDS011;6220;53.580;9.758;2022-07-11T04:24:18;2.93;;;1.47;;
12312;SDS011;6220;53.580;9.758;2022-07-11T04:26:44;2.67;;;1.40;;
12312;SDS011;6220;53.580;9.758;2022-07-11T04:29:09;1.90;;;1.30;;
12312;SDS011;6220;53.580;9.758;2022-07-11T04:31:35;5.10;;;1.80;;
12312;SDS011;6220;53.580;9.758;2022-07-11T04:34:00;4.17;;;2.07;;
12312;SDS011;6220;53.580;9.758;2022-07-11T04:36:25;7.47;;;2.00;;
12312;SDS011;6220;53.580;9.758;2022-07-11T04:38:51;8.07;;;2.60;;
12312;SDS011;6220;53.580;9.758;2022-07-11T04:41:16;3.17;;;1.97;;
12312;SDS011;6220;53.580;9.758;2022-07-11T04:43:41;4.67;;;1.93;;
12312;SDS011;6220;53.580;9.758;2022-07-11T04:46:07;11.27;;;2.40;;
12312;SDS011;6220;53.580;9.758;2022-07-11T04:48:33;6.40;;;2.10;;
12312;SDS011;6220;53.580;9.758;2022-07-11T04:50:58;2.47;;;1.70;;
12312;SDS011;6220;53.580;9.758;2022-07-11T04:53:24;5.17;;;1.87;;
12312;SDS011;6220;53.580;9.758;2022-07-11T04:55:49;5.43;;;1.90;;
12312;SDS011;6220;53.580;9.758;2022-07-11T04:58:14;6.90;;;2.00;;
12312;SDS011;6220;53.580;9.758;2022-07-11T05:00:40;6.33;;;1.80;;
12312;SDS011;6220;53.580;9.758;2022-07-11T05:03:05;5.00;;;1.63;;
12312;SDS011;6220;53.580;9.758;2022-07-11T05:05:30;4.17;;;1.90;;
12312;SDS011;6220;53.580;9.758;2022-07-11T05:07:56;4.83;;;1.70;;
12312;SDS011;6220;53.580;9.758;2022-07-11T05:10:22;7.20;;;2.00;;
12312;SDS011;6220;53.580;9.758;2022-07-11T05:12:48;4.03;;;2.00;;
12312;SDS011;6220;53.580;9.758;2022-07-11T05:15:13;4.03;;;1.50;;
12312;SDS011;6220;53.580;9.758;2022-07-11T05:17:38;5.17;;;1.77;;
12312;SDS011;6220;53.580;9.758;2022-07-11T05:20:04;5.30;;;1.70;;
12312;SDS011;6220;53.580;9.758;2022-07-11T05:22:29;5.47;;;1.80;;
12312;SDS011;6220;53.580;9.758;2022-07-11T05:24:55;4.80;;;1.67;;
12312;SDS011;6220;53.580;9.758;2022-07-11T05:27:20;7.43;;;1.80;;
12312;SDS011;6220;53.580;9.758;2022-07-11T05:29:46;7.40;;;1.97;;
12312;SDS011;6220;53.580;9.758;2022-07-11T05:32:11;4.07;;;2.03;;
12312;SDS011;6220;53.580;9.758;2022-07-11T05:34:36;11.60;;;2.03;;
12312;SDS011;6220;53.580;9.758;2022-07-11T05:37:02;7.53;;;1.93;;
12312;SDS011;6220;53.580;9.758;2022-07-11T05:39:28;5.87;;;2.00;;
12312;SDS011;6220;53.580;9.758;2022-07-11T05:41:53;7.73;;;2.50;;
12312;SDS011;6220;53.580;9.758;2022-07-11T05:44:18;9.03;;;2.60;;
12312;SDS011;6220;53.580;9.758;2022-07-11T05:46:47;9.53;;;2.30;;
12312;SDS011;6220;53.580;9.758;2022-07-11T05:49:12;5.33;;;1.60;;
12312;SDS011;6220;53.580;9.758;2022-07-11T05:51:38;5.17;;;2.00;;
12312;SDS011;6220;53.580;9.758;2022-07-11T05:54:03;8.17;;;2.10;;
12312;SDS011;6220;53.580;9.758;2022-07-11T05:56:29;10.90;;;2.03;;
12312;SDS011;6220;53.580;9.758;2022-07-11T05:58:54;6.70;;;2.40;;
12312;SDS011;6220;53.580;9.758;2022-07-11T06:01:20;4.93;;;1.70;;
12312;SDS011;6220;53.580;9.758;2022-07-11T06:03:46;8.67;;;2.30;;
12312;SDS011;6220;53.580;9.758;2022-07-11T06:06:12;6.83;;;2.00;;
12312;SDS011;6220;53.580;9.758;2022-07-11T06:08:37;8.07;;;1.87;;
12312;SDS011;6220;53.580;9.758;2022-07-11T06:11:05;5.10;;;2.00;;
12312;SDS011;6220;53.580;9.758;2022-07-11T06:13:31;5.53;;;1.80;;
12312;SDS011;6220;53.580;9.758;2022-07-11T06:15:56;5.13;;;1.77;;
12312;SDS011;6220;53.580;9.758;2022-07-11T06:18:22;6.47;;;2.00;;
12312;SDS011;6220;53.580;9.758;2022-07-11T06:20:48;4.63;;;1.40;;
12312;SDS011;6220;53.580;9.758;2022-07-11T06:23:14;6.53;;;2.03;;
12312;SDS011;6220;53.580;9.758;2022-07-11T06:25:39;7.10;;;2.13;;
12312;SDS011;6220;53.580;9.758;2022-07-11T06:28:04;5.83;;;1.70;;
12312;SDS011;6220;53.580;9.758;2022-07-11T06:30:33;7.20;;;1.80;;
12312;SDS011;6220;53.580;9.758;2022-07-11T06:33:01;4.10;;;1.63;;
12312;SDS011;6220;53.580;9.758;2022-07-11T06:35:27;4.50;;;1.63;;
12312;SDS011;6220;53.580;9.758;2022-07-11T06:37:52;5.47;;;1.60;;
12312;SDS011;6220;53.580;9.758;2022-07-11T06:40:17;6.07;;;1.77;;
12312;SDS011;6220;53.580;9.758;2022-07-11T06:42:43;8.77;;;2.00;;
12312;SDS011;6220;53.580;9.758;2022-07-11T06:45:09;4.60;;;1.70;;
12312;SDS011;6220;53.580;9.758;2022-07-11T06:47:34;4.20;;;1.60;;
12312;SDS011;6220;53.580;9.758;2022-07-11T06:50:00;3.10;;;1.30;;
12312;SDS011;6220;53.580;9.758;2022-07-11T06:52:25;6.60;;;2.23;;
12312;SDS011;6220;53.580;9.758;2022-07-11T06:54:51;3.27;;;1.43;;
12312;SDS011;6220;53.580;9.758;2022-07-11T06:57:19;13.97;;;2.47;;
12312;SDS011;6220;53.580;9.758;2022-07-11T06:59:53;8.97;;;2.17;;
12312;SDS011;6220;53.580;9.758;2022-07-11T07:02:19;5.40;;;1.60;;
12312;SDS011;6220;53.580;9.758;2022-07-11T07:04:44;5.67;;;1.63;;
12312;SDS011;6220;53.580;9.758;2022-07-11T07:07:10;3.60;;;1.67;;
12312;SDS011;6220;53.580;9.758;2022-07-11T07:09:35;3.57;;;1.90;;
12312;SDS011;6220;53.580;9.758;2022-07-11T07:12:01;2.83;;;1.70;;
12312;SDS011;6220;53.580;9.758;2022-07-11T07:14:26;5.17;;;2.23;;
12312;SDS011;6220;53.580;9.758;2022-07-11T07:16:51;6.33;;;2.40;;
12312;SDS011;6220;53.580;9.758;2022-07-11T07:19:17;4.47;;;2.00;;
12312;SDS011;6220;53.580;9.758;2022-07-11T07:21:43;5.43;;;2.27;;
12312;SDS011;6220;53.580;9.758;2022-07-11T07:24:09;4.67;;;2.30;;
12312;SDS011;6220;53.580;9.758;2022-07-11T07:26:34;3.13;;;2.30;;
12312;SDS011;6220;53.580;9.758;2022-07-11T07:29:00;7.47;;;2.50;;
12312;SDS011;6220;53.580;9.758;2022-07-11T07:31:25;4.17;;;2.20;;
12312;SDS011;6220;53.580;9.758;2022-07-11T07:33:50;5.27;;;2.30;;
12312;SDS011;6220;53.580;9.758;2022-07-11T07:36:16;6.00;;;2.20;;
12312;SDS011;6220;53.580;9.758;2022-07-11T07:38:42;4.17;;;2.00;;
12312;SDS011;6220;53.580;9.758;2022-07-11T07:41:09;3.57;;;1.60;;
12312;SDS011;6220;53.580;9.758;2022-07-11T07:43:35;5.47;;;2.13;;
12312;SDS011;6220;53.580;9.758;2022-07-11T07:46:00;5.93;;;1.77;;
12312;SDS011;6220;53.580;9.758;2022-07-11T07:48:25;5.07;;;1.83;;
12312;SDS011;6220;53.580;9.758;2022-07-11T07:50:51;3.80;;;1.80;;
12312;SDS011;6220;53.580;9.758;2022-07-11T07:53:16;2.50;;;1.50;;
12312;SDS011;6220;53.580;9.758;2022-07-11T07:55:41;4.80;;;2.27;;
12312;SDS011;6220;53.580;9.758;2022-07-11T07:58:07;4.43;;;1.63;;
12312;SDS011;6220;53.580;9.758;2022-07-11T08:00:32;3.50;;;1.53;;
12312;SDS011;6220;53.580;9.758;2022-07-11T08:03:16;5.87;;;1.70;;
12312;SDS011;6220;53.580;9.758;2022-07-11T08:05:42;5.00;;;1.93;;
12312;SDS011;6220;53.580;9.758;2022-07-11T08:08:07;3.73;;;1.77;;
12312;SDS011;6220;53.580;9.758;2022-07-11T08:10:32;2.73;;;1.63;;
12312;SDS011;6220;53.580;9.758;2022-07-11T08:12:58;3.50;;;1.70;;
12312;SDS011;6220;53.580;9.758;2022-07-11T08:15:23;3.87;;;1.33;;
12312;SDS011;6220;53.580;9.758;2022-07-11T08:17:49;3.57;;;1.63;;
12312;SDS011;6220;53.580;9.758;2022-07-11T08:20:14;2.67;;;1.60;;
12312;SDS011;6220;53.580;9.758;2022-07-11T08:22:39;4.23;;;1.50;;
12312;SDS011;6220;53.580;9.758;2022-07-11T08:25:05;3.20;;;1.40;;
12312;SDS011;6220;53.580;9.758;2022-07-11T08:27:31;4.77;;;1.90;;
12312;SDS011;6220;53.580;9.758;2022-07-11T08:29:56;3.33;;;1.10;;
12312;SDS011;6220;53.580;9.758;2022-07-11T08:32:23;2.67;;;1.50;;
12312;SDS011;6220;53.580;9.758;2022-07-11T08:34:49;3.50;;;1.40;;
12312;SDS011;6220;53.580;9.758;2022-07-11T08:37:14;4.00;;;1.60;;
12312;SDS011;6220;53.580;9.758;2022-07-11T08:39:40;5.50;;;1.40;;
12312;SDS011;6220;53.580;9.758;2022-07-11T08:42:05;3.27;;;1.40;;
12312;SDS011;6220;53.580;9.758;2022-07-11T08:44:32;2.90;;;1.33;;
12312;SDS011;6220;53.580;9.758;2022-07-11T08:46:57;2.60;;;1.27;;
12312;SDS011;6220;53.580;9.758;2022-07-11T08:49:24;4.33;;;1.53;;
12312;SDS011;6220;53.580;9.758;2022-07-11T08:51:49;4.33;;;1.50;;
12312;SDS011;6220;53.580;9.758;2022-07-11T08:54:14;3.23;;;1.67;;
12312;SDS011;6220;53.580;9.758;2022-07-11T08:56:40;3.43;;;1.10;;
12312;SDS011;6220;53.580;9.758;2022-07-11T08:59:09;3.43;;;1.20;;
12312;SDS011;6220;53.580;9.758;2022-07-11T09:01:35;3.87;;;1.30;;
12312;SDS011;6220;53.580;9.758;2022-07-11T09:04:02;3.63;;;1.30;;
12312;SDS011;6220;53.580;9.758;2022-07-11T09:06:27;3.87;;;1.33;;
12312;SDS011;6220;53.580;9.758;2022-07-11T09:08:57;3.27;;;1.30;;
12312;SDS011;6220;53.580;9.758;2022-07-11T09:11:25;5.80;;;1.80;;
12312;SDS011;6220;53.580;9.758;2022-07-11T09:13:51;3.80;;;1.60;;
12312;SDS011;6220;53.580;9.758;2022-07-11T09:16:17;3.77;;;1.90;;
12312;SDS011;6220;53.580;9.758;2022-07-11T09:18:42;2.53;;;1.80;;
12312;SDS011;6220;53.580;9.758;2022-07-11T09:21:09;3.37;;;1.93;;
12312;SDS011;6220;53.580;9.758;2022-07-11T09:23:54;2.60;;;2.03;;
12312;SDS011;6220;53.580;9.758;2022-07-11T09:26:41;2.10;;;1.47;;
12312;SDS011;6220;53.580;9.758;2022-07-11T09:29:17;3.30;;;1.70;;
12312;SDS011;6220;53.580;9.758;2022-07-11T09:31:45;5.13;;;2.00;;
12312;SDS011;6220;53.580;9.758;2022-07-11T09:34:12;3.03;;;1.70;;
12312;SDS011;6220;53.580;9.758;2022-07-11T09:39:06;4.70;;;1.90;;
12312;SDS011;6220;53.580;9.758;2022-07-11T09:41:33;3.07;;;1.70;;
12312;SDS011;6220;53.580;9.758;2022-07-11T09:44:06;2.70;;;1.70;;
12312;SDS011;6220;53.580;9.758;2022-07-11T09:46:33;6.30;;;1.87;;
12312;SDS011;6220;53.580;9.758;2022-07-11T09:49:02;3.30;;;1.63;;
12312;SDS011;6220;53.580;9.758;2022-07-11T09:51:28;4.10;;;1.80;;
12312;SDS011;6220;53.580;9.758;2022-07-11T09:53:56;3.47;;;1.40;;
12312;SDS011;6220;53.580;9.758;2022-07-11T09:59:04;6.40;;;1.87;;
12312;SDS011;6220;53.580;9.758;2022-07-11T10:01:30;3.40;;;1.90;;
12312;SDS011;6220;53.580;9.758;2022-07-11T10:03:56;3.03;;;1.63;;
12312;SDS011;6220;53.580;9.758;2022-07-11T10:06:22;3.83;;;1.60;;
12312;SDS011;6220;53.580;9.758;2022-07-11T10:08:48;2.77;;;1.60;;
12312;SDS011;6220;53.580;9.758;2022-07-11T10:11:14;4.00;;;1.80;;
12312;SDS011;6220;53.580;9.758;2022-07-11T10:13:40;4.53;;;2.07;;
12312;SDS011;6220;53.580;9.758;2022-07-11T10:16:08;3.27;;;1.60;;
12312;SDS011;6220;53.580;9.758;2022-07-11T10:21:27;2.93;;;1.80;;
12312;SDS011;6220;53.580;9.758;2022-07-11T10:24:07;3.20;;;1.77;;
12312;SDS011;6220;53.580;9.758;2022-07-11T10:27:05;4.33;;;1.70;;
12312;SDS011;6220;53.580;9.758;2022-07-11T10:29:50;5.00;;;1.80;;
12312;SDS011;6220;53.580;9.758;2022-07-11T10:32:16;3.30;;;1.80;;
12312;SDS011;6220;53.580;9.758;2022-07-11T10:34:42;3.77;;;2.00;;
12312;SDS011;6220;53.580;9.758;2022-07-11T10:37:08;6.20;;;2.00;;
12312;SDS011;6220;53.580;9.758;2022-07-11T10:39:35;3.37;;;1.87;;
12312;SDS011;6220;53.580;9.758;2022-07-11T10:42:05;4.17;;;1.70;;
12312;SDS011;6220;53.580;9.758;2022-07-11T10:44:50;3.07;;;1.80;;
12312;SDS011;6220;53.580;9.758;2022-07-11T10:47:39;2.60;;;1.63;;
12312;SDS011;6220;53.580;9.758;2022-07-11T10:50:30;2.17;;;1.70;;
12312;SDS011;6220;53.580;9.758;2022-07-11T10:53:07;2.87;;;1.70;;
12312;SDS011;6220;53.580;9.758;2022-07-11T10:58:33;4.30;;;1.90;;
12312;SDS011;6220;53.580;9.758;2022-07-11T11:03:37;3.27;;;1.60;;
12312;SDS011;6220;53.580;9.758;2022-07-11T11:06:06;2.67;;;1.43;;
12312;SDS011;6220;53.580;9.758;2022-07-11T11:16:43;2.87;;;1.50;;
12312;SDS011;6220;53.580;9.758;2022-07-11T11:19:48;8.10;;;1.70;;
12312;SDS011;6220;53.580;9.758;2022-07-11T11:22:14;3.53;;;1.80;;
12312;SDS011;6220;53.580;9.758;2022-07-11T11:24:43;4.47;;;1.60;;
12312;SDS011;6220;53.580;9.758;2022-07-11T11:27:19;4.67;;;1.60;;
12312;SDS011;6220;53.580;9.758;2022-07-11T11:29:47;5.67;;;1.53;;
12312;SDS011;6220;53.580;9.758;2022-07-11T11:32:13;6.50;;;2.03;;
12312;SDS011;6220;53.580;9.758;2022-07-11T11:34:38;3.70;;;1.40;;
12312;SDS011;6220;53.580;9.758;2022-07-11T11:37:05;5.37;;;1.83;;
12312;SDS011;6220;53.580;9.758;2022-07-11T11:39:34;2.00;;;1.30;;
12312;SDS011;6220;53.580;9.758;2022-07-11T11:42:04;5.73;;;1.53;;
12312;SDS011;6220;53.580;9.758;2022-07-11T11:44:47;3.23;;;1.40;;
12312;SDS011;6220;53.580;9.758;2022-07-11T11:47:16;3.77;;;1.10;;
12312;SDS011;6220;53.580;9.758;2022-07-11T11:49:44;3.03;;;1.50;;
12312;SDS011;6220;53.580;9.758;2022-07-11T11:52:10;5.63;;;1.47;;
12312;SDS011;6220;53.580;9.758;2022-07-11T11:54:36;3.03;;;1.40;;
12312;SDS011;6220;53.580;9.758;2022-07-11T11:57:13;3.87;;;1.30;;
12312;SDS011;6220;53.580;9.758;2022-07-11T11:59:41;2.10;;;1.60;;
12312;SDS011;6220;53.580;9.758;2022-07-11T12:02:07;2.73;;;1.20;;
12312;SDS011;6220;53.580;9.758;2022-07-11T12:04:34;2.80;;;1.00;;
12312;SDS011;6220;53.580;9.758;2022-07-11T12:07:02;1.33;;;1.07;;
12312;SDS011;6220;53.580;9.758;2022-07-11T12:09:28;1.23;;;0.90;;
12312;SDS011;6220;53.580;9.758;2022-07-11T12:12:16;1.33;;;0.77;;
12312;SDS011;6220;53.580;9.758;2022-07-11T12:15:01;1.33;;;0.83;;
12312;SDS011;6220;53.580;9.758;2022-07-11T12:17:27;8.77;;;1.00;;
12312;SDS011;6220;53.580;9.758;2022-07-11T12:19:56;2.10;;;0.87;;
12312;SDS011;6220;53.580;9.758;2022-07-11T12:22:21;0.90;;;0.80;;
12312;SDS011;6220;53.580;9.758;2022-07-11T12:24:47;0.90;;;0.67;;
12312;SDS011;6220;53.580;9.758;2022-07-11T12:27:20;0.77;;;0.77;;
12312;SDS011;6220;53.580;9.758;2022-07-11T12:29:49;2.47;;;0.83;;
12312;SDS011;6220;53.580;9.758;2022-07-11T12:32:16;1.17;;;0.70;;
12312;SDS011;6220;53.580;9.758;2022-07-11T12:34:43;1.27;;;1.17;;
12312;SDS011;6220;53.580;9.758;2022-07-11T12:37:17;1.93;;;1.23;;
12312;SDS011;6220;53.580;9.758;2022-07-11T12:39:47;2.17;;;0.90;;
12312;SDS011;6220;53.580;9.758;2022-07-11T12:47:33;1.20;;;0.90;;
12312;SDS011;6220;53.580;9.758;2022-07-11T12:50:06;1.93;;;0.77;;
12312;SDS011;6220;53.580;9.758;2022-07-11T12:52:39;2.47;;;0.80;;
12312;SDS011;6220;53.580;9.758;2022-07-11T12:55:05;1.47;;;1.37;;
12312;SDS011;6220;53.580;9.758;2022-07-11T12:57:32;3.57;;;0.93;;
12312;SDS011;6220;53.580;9.758;2022-07-11T13:00:09;0.73;;;0.70;;
12312;SDS011;6220;53.580;9.758;2022-07-11T13:02:37;1.70;;;0.90;;
12312;SDS011;6220;53.580;9.758;2022-07-11T13:05:02;0.93;;;0.77;;
12312;SDS011;6220;53.580;9.758;2022-07-11T13:07:31;7.83;;;1.20;;
12312;SDS011;6220;53.580;9.758;2022-07-11T13:10:16;1.40;;;0.70;;
12312;SDS011;6220;53.580;9.758;2022-07-11T13:12:42;1.70;;;0.80;;
12312;SDS011;6220;53.580;9.758;2022-07-11T13:15:08;2.43;;;0.70;;
12312;SDS011;6220;53.580;9.758;2022-07-11T13:18:08;2.13;;;0.90;;
12312;SDS011;6220;53.580;9.758;2022-07-11T13:20:27;1.17;;;0.90;;
12312;SDS011;6220;53.580;9.758;2022-07-11T13:22:52;0.90;;;0.90;;
12312;SDS011;6220;53.580;9.758;2022-07-11T13:25:19;0.60;;;0.60;;
12312;SDS011;6220;53.580;9.758;2022-07-11T13:27:45;0.73;;;0.63;;
12312;SDS011;6220;53.580;9.758;2022-07-11T13:30:12;0.60;;;0.60;;
12312;SDS011;6220;53.580;9.758;2022-07-11T13:32:42;0.80;;;0.80;;
12312;SDS011;6220;53.580;9.758;2022-07-11T13:35:08;2.03;;;0.80;;
12312;SDS011;6220;53.580;9.758;2022-07-11T13:37:34;1.40;;;1.30;;
12312;SDS011;6220;53.580;9.758;2022-07-11T13:40:05;1.23;;;0.77;;
12312;SDS011;6220;53.580;9.758;2022-07-11T13:42:34;0.67;;;0.67;;
12312;SDS011;6220;53.580;9.758;2022-07-11T13:45:03;0.87;;;0.80;;
12312;SDS011;6220;53.580;9.758;2022-07-11T13:47:29;0.73;;;0.70;;
12312;SDS011;6220;53.580;9.758;2022-07-11T13:49:54;0.60;;;0.60;;
12312;SDS011;6220;53.580;9.758;2022-07-11T13:52:20;1.97;;;0.80;;
12312;SDS011;6220;53.580;9.758;2022-07-11T13:54:46;3.67;;;1.10;;
12312;SDS011;6220;53.580;9.758;2022-07-11T13:57:11;1.27;;;1.00;;
12312;SDS011;6220;53.580;9.758;2022-07-11T13:59:36;0.70;;;0.70;;
12312;SDS011;6220;53.580;9.758;2022-07-11T14:02:02;1.13;;;0.70;;
12312;SDS011;6220;53.580;9.758;2022-07-11T14:04:28;1.10;;;0.70;;
12312;SDS011;6220;53.580;9.758;2022-07-11T14:06:53;1.53;;;0.80;;
12312;SDS011;6220;53.580;9.758;2022-07-11T14:09:19;2.67;;;1.00;;
12312;SDS011;6220;53.580;9.758;2022-07-11T14:11:44;1.33;;;0.60;;
12312;SDS011;6220;53.580;9.758;2022-07-11T14:14:10;1.17;;;0.60;;
12312;SDS011;6220;53.580;9.758;2022-07-11T14:16:35;1.13;;;0.70;;
12312;SDS011;6220;53.580;9.758;2022-07-11T14:19:01;0.70;;;0.70;;
12312;SDS011;6220;53.580;9.758;2022-07-11T14:21:29;1.00;;;0.70;;
12312;SDS011;6220;53.580;9.758;2022-07-11T14:23:57;0.93;;;0.80;;
12312;SDS011;6220;53.580;9.758;2022-07-11T14:26:23;0.60;;;0.60;;
12312;SDS011;6220;53.580;9.758;2022-07-11T14:28:48;1.77;;;0.70;;
12312;SDS011;6220;53.580;9.758;2022-07-11T14:31:15;1.30;;;1.07;;
12312;SDS011;6220;53.580;9.758;2022-07-11T14:33:41;0.93;;;0.70;;
12312;SDS011;6220;53.580;9.758;2022-07-11T14:36:06;0.70;;;0.70;;
12312;SDS011;6220;53.580;9.758;2022-07-11T14:38:32;0.70;;;0.67;;
12312;SDS011;6220;53.580;9.758;2022-07-11T14:40:57;1.07;;;0.70;;
12312;SDS011;6220;53.580;9.758;2022-07-11T14:43:23;1.00;;;0.60;;
12312;SDS011;6220;53.580;9.758;2022-07-11T14:45:48;2.03;;;1.10;;
12312;SDS011;6220;53.580;9.758;2022-07-11T14:48:13;0.77;;;0.77;;
12312;SDS011;6220;53.580;9.758;2022-07-11T14:50:39;2.03;;;0.80;;
12312;SDS011;6220;53.580;9.758;2022-07-11T14:53:04;1.90;;;0.80;;
12312;SDS011;6220;53.580;9.758;2022-07-11T14:55:30;0.60;;;0.60;;
12312;SDS011;6220;53.580;9.758;2022-07-11T14:57:55;1.77;;;0.67;;
12312;SDS011;6220;53.580;9.758;2022-07-11T15:00:21;0.90;;;0.70;;
12312;SDS011;6220;53.580;9.758;2022-07-11T15:02:47;0.90;;;0.80;;
12312;SDS011;6220;53.580;9.758;2022-07-11T15:05:31;1.27;;;0.97;;
12312;SDS011;6220;53.580;9.758;2022-07-11T15:07:56;1.17;;;0.63;;
12312;SDS011;6220;53.580;9.758;2022-07-11T15:10:40;1.20;;;0.77;;
12312;SDS011;6220;53.580;9.758;2022-07-11T15:13:24;1.23;;;0.83;;
12312;SDS011;6220;53.580;9.758;2022-07-11T15:15:50;1.63;;;0.90;;
12312;SDS011;6220;53.580;9.758;2022-07-11T15:18:15;1.50;;;0.93;;
12312;SDS011;6220;53.580;9.758;2022-07-11T15:20:40;1.67;;;0.90;;
12312;SDS011;6220;53.580;9.758;2022-07-11T15:23:06;0.80;;;0.70;;
12312;SDS011;6220;53.580;9.758;2022-07-11T15:25:31;1.67;;;0.70;;
12312;SDS011;6220;53.580;9.758;2022-07-11T15:27:57;2.40;;;0.90;;